Time;durP1;ratioP1;P1;durP2;ratioP2;P2;SDS_P1;SDS_P2;PMS_P1;PMS_P2;Temp;Humidity;BMP_temperature;BMP_pressure;BME280_temperature;BME280_humidity;BME280_pressure;Samples;Min_cycle;Max_cycle;Signal;HPM_P1;HPM_P2
2023/03/10 00:00:00;;;;;;;1.67;0.40;;;8.70;99.90;;;;;;5076710;28;20806;-81
2023/03/10 00:02:31;;;;;;;0.90;0.50;;;8.70;99.90;;;;;;5076882;28;20450;-81
2023/03/10 00:04:58;;;;;;;1.27;0.30;;;8.80;99.90;;;;;;5076931;28;20434;-81
2023/03/10 00:07:26;;;;;;;0.40;0.33;;;8.80;99.90;;;;;;5076643;28;20485;-81
2023/03/10 00:09:53;;;;;;;0.63;0.47;;;8.80;99.90;;;;;;5076813;28;20468;-81
2023/03/10 00:12:21;;;;;;;1.30;0.37;;;8.80;99.90;;;;;;5076694;28;20472;-80
2023/03/10 00:14:48;;;;;;;0.40;0.40;;;8.80;99.90;;;;;;5076695;28;20484;-81
2023/03/10 00:17:15;;;;;;;0.43;0.40;;;8.70;99.90;;;;;;5076250;28;20940;-81
2023/03/10 00:19:41;;;;;;;0.50;0.50;;;8.70;99.90;;;;;;5076567;28;20449;-81
2023/03/10 00:22:08;;;;;;;0.40;0.33;;;8.70;99.90;;;;;;5076223;28;20948;-81
2023/03/10 00:24:36;;;;;;;0.80;0.30;;;8.70;99.90;;;;;;5076791;28;20453;-81
2023/03/10 00:27:03;;;;;;;0.40;0.40;;;8.70;99.90;;;;;;5076376;28;20579;-81
2023/03/10 00:29:29;;;;;;;1.70;0.60;;;8.60;99.90;;;;;;5076279;28;20473;-81
2023/03/10 00:31:56;;;;;;;1.07;0.30;;;8.60;99.90;;;;;;5076364;28;20445;-81
2023/03/10 00:34:23;;;;;;;4.20;0.40;;;8.60;99.90;;;;;;5076258;28;20454;-81
2023/03/10 00:36:49;;;;;;;0.37;0.37;;;8.70;99.90;;;;;;5076252;28;20453;-81
2023/03/10 00:39:16;;;;;;;0.40;0.30;;;8.70;99.90;;;;;;5076222;28;20469;-81
2023/03/10 00:41:44;;;;;;;0.30;0.30;;;8.70;99.90;;;;;;5075875;28;20941;-80
2023/03/10 00:44:12;;;;;;;0.40;0.30;;;8.70;99.90;;;;;;5076134;28;20446;-81
2023/03/10 00:46:38;;;;;;;0.50;0.40;;;8.80;99.90;;;;;;5075607;28;20493;-81
2023/03/10 00:49:06;;;;;;;0.40;0.30;;;8.80;99.90;;;;;;5076029;28;20473;-81
2023/03/10 00:51:33;;;;;;;0.30;0.30;;;8.80;99.90;;;;;;5075979;28;20449;-81
2023/03/10 00:54:01;;;;;;;0.40;0.33;;;8.70;99.90;;;;;;5075773;28;20457;-81
2023/03/10 00:56:28;;;;;;;0.40;0.40;;;8.80;99.90;;;;;;5075929;28;20448;-81
2023/03/10 00:58:59;;;;;;;0.30;0.30;;;8.70;99.90;;;;;;5076109;28;20465;-81
2023/03/10 01:01:28;;;;;;;0.30;0.30;;;8.80;99.90;;;;;;5076128;28;20440;-81
2023/03/10 01:03:57;;;;;;;1.70;0.50;;;8.80;99.90;;;;;;5075444;28;20453;-81
2023/03/10 01:06:24;;;;;;;0.40;0.33;;;8.80;99.90;;;;;;5075710;28;20805;-81
2023/03/10 01:08:51;;;;;;;0.37;0.30;;;8.80;99.90;;;;;;5075351;28;20995;-81
2023/03/10 01:11:19;;;;;;;1.90;0.40;;;8.90;99.90;;;;;;5075683;28;20445;-81
2023/03/10 01:13:46;;;;;;;0.30;0.30;;;8.90;99.90;;;;;;5075593;28;20447;-81
2023/03/10 01:16:14;;;;;;;0.80;0.37;;;8.90;99.90;;;;;;5075834;28;20449;-81
2023/03/10 01:18:42;;;;;;;0.30;0.20;;;8.90;99.90;;;;;;5075723;28;20540;-81
2023/03/10 01:21:16;;;;;;;0.30;0.30;;;8.90;99.90;;;;;;5075535;28;20473;-81
2023/03/10 01:23:43;;;;;;;0.30;0.30;;;8.80;99.90;;;;;;5075263;28;20897;-81
2023/03/10 01:26:10;;;;;;;0.40;0.30;;;8.80;99.90;;;;;;5075054;28;20456;-81
2023/03/10 01:28:36;;;;;;;0.63;0.60;;;8.90;99.90;;;;;;5075169;28;20489;-81
2023/03/10 01:31:06;;;;;;;0.30;0.20;;;8.90;99.90;;;;;;5075527;28;20445;-81
2023/03/10 01:33:34;;;;;;;0.40;0.30;;;9.00;99.90;;;;;;5075236;28;20457;-81
2023/03/10 01:36:01;;;;;;;0.30;0.30;;;9.00;99.90;;;;;;5075232;28;20858;-81
2023/03/10 01:38:28;;;;;;;0.47;0.47;;;9.00;99.90;;;;;;5074741;28;20462;-81
2023/03/10 01:40:55;;;;;;;0.30;0.30;;;9.00;99.90;;;;;;5075093;28;20453;-81
2023/03/10 01:43:27;;;;;;;0.50;0.40;;;9.00;99.90;;;;;;5075106;28;20453;-81
2023/03/10 01:46:40;;;;;;;0.50;0.50;;;9.00;99.90;;;;;;5074622;28;21023;-81
2023/03/10 01:49:14;;;;;;;0.50;0.50;;;9.00;99.90;;;;;;5074862;28;20457;-81
2023/03/10 01:51:43;;;;;;;0.37;0.27;;;8.90;99.90;;;;;;5075596;28;20846;-81
2023/03/10 01:54:16;;;;;;;0.50;0.40;;;8.90;99.90;;;;;;5074485;28;20937;-81
2023/03/10 01:56:44;;;;;;;0.40;0.33;;;8.80;99.90;;;;;;5074781;28;20440;-81
2023/03/10 01:59:12;;;;;;;0.97;0.30;;;8.90;99.90;;;;;;5074643;28;20477;-81
2023/03/10 02:01:39;;;;;;;0.40;0.30;;;8.90;99.90;;;;;;5074633;28;20448;-81
2023/03/10 02:04:12;;;;;;;0.80;0.50;;;8.90;99.90;;;;;;5074878;28;20461;-81
2023/03/10 02:06:40;;;;;;;0.30;0.20;;;8.90;99.90;;;;;;5073885;28;20440;-81
2023/03/10 02:09:09;;;;;;;0.30;0.20;;;8.90;99.90;;;;;;5074101;28;21046;-81
2023/03/10 02:11:37;;;;;;;2.93;0.50;;;8.90;99.90;;;;;;5074402;28;20457;-81
2023/03/10 02:14:05;;;;;;;0.40;0.30;;;8.90;99.90;;;;;;5074367;28;20452;-81
2023/03/10 02:16:32;;;;;;;0.40;0.30;;;8.80;99.90;;;;;;5074287;28;20860;-80
2023/03/10 02:18:59;;;;;;;0.30;0.20;;;8.80;99.90;;;;;;5073884;28;20977;-81
2023/03/10 02:21:38;;;;;;;0.30;0.30;;;8.70;99.90;;;;;;5073918;28;20933;-81
2023/03/10 02:24:10;;;;;;;0.40;0.30;;;8.70;99.90;;;;;;5074247;28;20429;-81
2023/03/10 02:26:45;;;;;;;0.37;0.30;;;8.70;99.90;;;;;;5074128;28;20439;-81
2023/03/10 02:29:20;;;;;;;0.30;0.20;;;8.70;99.90;;;;;;5074099;28;20465;-81
2023/03/10 02:31:47;;;;;;;0.43;0.30;;;8.70;99.90;;;;;;5074095;28;20425;-81
2023/03/10 02:34:14;;;;;;;0.30;0.30;;;8.70;99.90;;;;;;5073686;28;20450;-80
2023/03/10 02:36:41;;;;;;;0.50;0.40;;;8.60;99.90;;;;;;5073640;28;20445;-81
2023/03/10 02:39:08;;;;;;;0.47;0.47;;;8.60;99.90;;;;;;5073845;28;20472;-81
2023/03/10 02:41:37;;;;;;;0.30;0.20;;;8.50;99.90;;;;;;5073895;28;20579;-81
2023/03/10 02:44:07;;;;;;;1.27;0.40;;;8.50;99.90;;;;;;5073983;28;20461;-80
2023/03/10 02:46:36;;;;;;;0.30;0.30;;;8.40;99.90;;;;;;5073380;28;20484;-80
2023/03/10 02:49:04;;;;;;;0.30;0.30;;;8.30;99.90;;;;;;5073867;28;20494;-80
2023/03/10 02:51:35;;;;;;;0.30;0.30;;;8.40;99.90;;;;;;5073740;28;20449;-80
2023/03/10 02:54:02;;;;;;;0.30;0.20;;;8.30;99.90;;;;;;5073438;28;20440;-80
2023/03/10 02:56:29;;;;;;;0.30;0.20;;;8.20;99.90;;;;;;5073713;28;20453;-80
2023/03/10 02:58:56;;;;;;;0.50;0.30;;;8.20;99.90;;;;;;5073591;28;20469;-80
2023/03/10 03:01:25;;;;;;;0.30;0.27;;;8.20;99.90;;;;;;5073612;28;20452;-80
2023/03/10 03:03:53;;;;;;;0.30;0.30;;;8.10;99.90;;;;;;5073634;28;20453;-80
2023/03/10 03:06:20;;;;;;;0.30;0.30;;;8.10;99.90;;;;;;5074641;28;20450;-80
2023/03/10 03:08:46;;;;;;;0.30;0.20;;;8.00;99.90;;;;;;5073380;28;20485;-80
2023/03/10 03:11:13;;;;;;;0.40;0.40;;;8.00;99.90;;;;;;5073224;28;20441;-80
2023/03/10 03:13:40;;;;;;;0.30;0.30;;;8.00;99.90;;;;;;5073424;28;20438;-80
2023/03/10 03:16:08;;;;;;;0.30;0.30;;;8.00;99.90;;;;;;5073448;28;20814;-80
2023/03/10 03:18:35;;;;;;;0.30;0.20;;;7.90;99.90;;;;;;5072410;28;20470;-80
2023/03/10 03:21:05;;;;;;;0.40;0.30;;;7.90;99.90;;;;;;5073118;28;20445;-80
2023/03/10 03:23:33;;;;;;;0.30;0.30;;;7.80;99.90;;;;;;5073406;28;20437;-80
2023/03/10 03:26:00;;;;;;;0.30;0.20;;;7.90;99.90;;;;;;5073353;28;20477;-80
2023/03/10 03:28:26;;;;;;;0.30;0.20;;;7.90;99.90;;;;;;5073189;28;20503;-80
2023/03/10 03:30:53;;;;;;;0.30;0.30;;;7.90;99.90;;;;;;5073284;28;20450;-80
2023/03/10 03:33:20;;;;;;;0.30;0.20;;;7.80;99.90;;;;;;5073193;28;20971;-80
2023/03/10 03:35:46;;;;;;;0.30;0.30;;;7.80;99.90;;;;;;5073230;28;20437;-80
2023/03/10 03:38:14;;;;;;;0.30;0.30;;;7.80;99.90;;;;;;5073377;28;20489;-79
2023/03/10 03:40:43;;;;;;;0.30;0.30;;;7.80;99.90;;;;;;5073207;28;20449;-79
2023/03/10 03:43:12;;;;;;;0.30;0.20;;;7.80;99.90;;;;;;5073082;28;20813;-79
2023/03/10 03:45:38;;;;;;;0.40;0.30;;;7.90;99.90;;;;;;5072906;28;20477;-80
2023/03/10 03:48:05;;;;;;;0.30;0.30;;;7.90;99.90;;;;;;5072997;28;20485;-79
2023/03/10 03:50:32;;;;;;;0.50;0.50;;;7.90;99.90;;;;;;5073116;28;20820;-80
2023/03/10 03:52:59;;;;;;;0.30;0.27;;;7.90;99.90;;;;;;5073088;28;20442;-80
2023/03/10 03:55:27;;;;;;;0.30;0.20;;;7.90;99.90;;;;;;5073066;28;20449;-79
2023/03/10 03:57:54;;;;;;;0.30;0.30;;;7.90;99.90;;;;;;5072645;28;20980;-79
2023/03/10 04:00:24;;;;;;;0.30;0.20;;;7.80;99.90;;;;;;5073251;28;20449;-80
2023/03/10 04:02:50;;;;;;;1.63;0.30;;;7.90;99.90;;;;;;5072975;28;20449;-79
2023/03/10 04:05:17;;;;;;;0.40;0.30;;;7.90;99.90;;;;;;5072946;28;20441;-79
2023/03/10 04:07:47;;;;;;;0.30;0.20;;;7.90;99.90;;;;;;5072788;28;20493;-79
2023/03/10 04:10:16;;;;;;;0.30;0.30;;;7.90;99.90;;;;;;5072924;28;20545;-79
2023/03/10 04:12:44;;;;;;;0.60;0.30;;;7.90;99.90;;;;;;5072904;28;20449;-79
2023/03/10 04:15:11;;;;;;;0.30;0.30;;;7.90;99.90;;;;;;5072837;28;20449;-79
2023/03/10 04:17:38;;;;;;;0.40;0.30;;;7.90;99.90;;;;;;5072439;28;20981;-79
2023/03/10 04:20:08;;;;;;;0.30;0.20;;;7.80;99.90;;;;;;5072821;28;20458;-79
2023/03/10 04:22:35;;;;;;;0.30;0.20;;;7.80;99.90;;;;;;5072761;28;20477;-80
2023/03/10 04:25:02;;;;;;;0.30;0.20;;;7.70;99.90;;;;;;5072742;28;20452;-79
2023/03/10 04:27:29;;;;;;;0.30;0.27;;;7.70;99.90;;;;;;5072314;28;20989;-79
2023/03/10 04:29:57;;;;;;;0.30;0.30;;;7.70;99.90;;;;;;5075112;28;20453;-79
2023/03/10 04:32:24;;;;;;;0.30;0.20;;;7.70;99.90;;;;;;5076350;28;20815;-80
2023/03/10 04:34:51;;;;;;;0.30;0.30;;;7.70;99.90;;;;;;5075999;28;20968;-79
2023/03/10 04:37:19;;;;;;;0.30;0.20;;;7.70;99.90;;;;;;5076197;28;20449;-80
2023/03/10 04:39:45;;;;;;;0.30;0.20;;;7.70;99.90;;;;;;5075887;28;20479;-80
2023/03/10 04:42:12;;;;;;;0.30;0.30;;;7.80;99.90;;;;;;5076188;28;20449;-80
2023/03/10 04:44:39;;;;;;;0.40;0.30;;;7.90;99.90;;;;;;5075678;28;20941;-80
2023/03/10 04:47:07;;;;;;;0.30;0.20;;;7.90;99.90;;;;;;5076112;28;20452;-80
2023/03/10 04:49:34;;;;;;;0.30;0.30;;;8.00;99.90;;;;;;5075661;28;20988;-80
2023/03/10 04:52:00;;;;;;;0.30;0.20;;;8.00;99.90;;;;;;5076056;28;20452;-80
2023/03/10 04:54:27;;;;;;;0.33;0.33;;;8.00;99.90;;;;;;5076007;28;20452;-80
2023/03/10 04:56:54;;;;;;;0.30;0.20;;;8.00;99.90;;;;;;5075694;28;20936;-80
2023/03/10 04:59:20;;;;;;;0.30;0.30;;;8.00;99.90;;;;;;5075859;28;20472;-80
2023/03/10 05:01:47;;;;;;;0.30;0.30;;;7.90;99.90;;;;;;5076062;28;20445;-82
2023/03/10 05:04:15;;;;;;;0.30;0.20;;;7.80;99.90;;;;;;5075832;28;20445;-81
2023/03/10 05:06:42;;;;;;;0.30;0.30;;;7.80;99.90;;;;;;5075734;28;20445;-82
2023/03/10 05:09:08;;;;;;;0.33;0.27;;;7.70;99.90;;;;;;5075747;28;20481;-81
2023/03/10 05:11:35;;;;;;;0.40;0.30;;;7.70;99.90;;;;;;5075743;28;20815;-81
2023/03/10 05:14:02;;;;;;;0.30;0.30;;;7.60;99.90;;;;;;5075632;28;20448;-81
2023/03/10 05:16:29;;;;;;;0.30;0.30;;;7.60;99.90;;;;;;5075545;28;20445;-81
2023/03/10 05:18:56;;;;;;;0.40;0.40;;;7.60;99.90;;;;;;5075724;28;20457;-81
2023/03/10 05:21:24;;;;;;;1.03;0.30;;;7.60;99.90;;;;;;5075500;28;20452;-80
2023/03/10 05:23:51;;;;;;;0.30;0.30;;;7.60;99.90;;;;;;5075121;28;20450;-80
2023/03/10 05:26:18;;;;;;;0.30;0.20;;;7.50;99.90;;;;;;5075352;28;20456;-80
2023/03/10 05:28:44;;;;;;;0.30;0.20;;;7.50;99.90;;;;;;5075186;28;20504;-80
2023/03/10 05:31:13;;;;;;;0.40;0.30;;;7.50;99.90;;;;;;5075257;28;20452;-79
2023/03/10 05:33:41;;;;;;;0.40;0.30;;;7.50;99.90;;;;;;5075186;28;20819;-79
2023/03/10 05:36:09;;;;;;;0.30;0.20;;;7.60;99.90;;;;;;5075442;28;20466;-79
2023/03/10 05:38:38;;;;;;;0.40;0.30;;;7.70;99.90;;;;;;5075026;28;20477;-80
2023/03/10 05:41:07;;;;;;;0.30;0.20;;;7.80;99.90;;;;;;5074301;28;20441;-80
2023/03/10 05:43:33;;;;;;;0.40;0.30;;;7.90;99.90;;;;;;5075265;28;20524;-80
2023/03/10 05:46:00;;;;;;;0.40;0.30;;;7.90;99.90;;;;;;5074587;28;20492;-80
2023/03/10 05:48:27;;;;;;;0.50;0.50;;;7.90;99.90;;;;;;5074790;28;20492;-80
2023/03/10 05:50:58;;;;;;;0.30;0.30;;;8.00;99.90;;;;;;5074921;28;20836;-80
2023/03/10 05:53:25;;;;;;;0.40;0.30;;;8.10;99.90;;;;;;5074840;28;20449;-76
2023/03/10 05:55:54;;;;;;;0.30;0.20;;;8.10;99.90;;;;;;5074775;28;20457;-76
2023/03/10 05:58:22;;;;;;;0.60;0.30;;;8.10;99.90;;;;;;5074661;28;20469;-76
2023/03/10 06:00:48;;;;;;;0.30;0.20;;;8.10;99.90;;;;;;5074660;28;20641;-76
2023/03/10 06:03:15;;;;;;;0.70;0.70;;;8.00;99.90;;;;;;5074652;28;20473;-76
2023/03/10 06:05:42;;;;;;;0.77;0.67;;;7.90;99.90;;;;;;5074558;28;20803;-76
2023/03/10 06:08:09;;;;;;;0.30;0.20;;;7.90;99.90;;;;;;5074377;28;20484;-79
2023/03/10 06:10:35;;;;;;;0.30;0.30;;;7.80;99.90;;;;;;5074413;28;20457;-78
2023/03/10 06:13:03;;;;;;;0.30;0.30;;;7.70;99.90;;;;;;5074471;28;20450;-78
2023/03/10 06:15:30;;;;;;;0.40;0.30;;;7.70;99.90;;;;;;5074324;28;20453;-78
2023/03/10 06:17:57;;;;;;;0.30;0.30;;;7.60;99.90;;;;;;5074217;28;20469;-79
2023/03/10 06:20:24;;;;;;;0.30;0.20;;;7.60;99.90;;;;;;5073976;28;20941;-79
2023/03/10 06:22:52;;;;;;;1.00;0.33;;;7.60;99.90;;;;;;5073889;28;20933;-79
2023/03/10 06:25:19;;;;;;;0.30;0.20;;;7.60;99.90;;;;;;5074166;28;20496;-79
2023/03/10 06:27:45;;;;;;;0.30;0.30;;;7.50;99.90;;;;;;5073769;28;20469;-79
2023/03/10 06:30:15;;;;;;;0.30;0.20;;;7.60;99.90;;;;;;5074087;28;20480;-79
2023/03/10 06:32:41;;;;;;;0.30;0.20;;;7.50;99.90;;;;;;5074074;28;20441;-79
2023/03/10 06:35:10;;;;;;;0.30;0.20;;;7.50;99.90;;;;;;5074031;28;20724;-79
2023/03/10 06:37:37;;;;;;;0.30;0.20;;;7.50;99.90;;;;;;5073573;28;21000;-79
2023/03/10 06:40:06;;;;;;;0.50;0.37;;;7.40;99.90;;;;;;5073875;28;20450;-79
2023/03/10 06:42:33;;;;;;;0.30;0.20;;;7.40;99.90;;;;;;5073914;28;20449;-79
2023/03/10 06:45:00;;;;;;;0.50;0.30;;;7.50;99.90;;;;;;5073589;28;20488;-79
2023/03/10 06:47:28;;;;;;;0.30;0.20;;;7.50;99.90;;;;;;5073643;28;20905;-79
2023/03/10 06:49:55;;;;;;;0.30;0.30;;;7.40;99.90;;;;;;5073678;28;20491;-79
2023/03/10 06:52:22;;;;;;;0.40;0.30;;;7.60;99.90;;;;;;5073536;28;20452;-80
2023/03/10 06:54:48;;;;;;;0.40;0.30;;;7.60;99.90;;;;;;5073429;28;20445;-80
2023/03/10 06:57:15;;;;;;;0.30;0.20;;;7.70;99.90;;;;;;5073593;28;20449;-79
2023/03/10 06:59:42;;;;;;;0.97;0.30;;;7.70;99.90;;;;;;5073627;28;20524;-79
2023/03/10 07:02:10;;;;;;;0.30;0.30;;;7.80;99.90;;;;;;5073527;28;20871;-79
2023/03/10 07:04:38;;;;;;;0.90;0.30;;;7.90;99.90;;;;;;5073554;28;20449;-79
2023/03/10 07:07:05;;;;;;;0.30;0.20;;;8.10;99.90;;;;;;5073796;28;20444;-79
2023/03/10 07:09:32;;;;;;;0.80;0.37;;;8.10;99.90;;;;;;5073593;28;20492;-80
2023/03/10 07:11:59;;;;;;;0.30;0.30;;;8.20;99.90;;;;;;5073446;28;20453;-80
2023/03/10 07:14:26;;;;;;;0.40;0.30;;;8.20;99.90;;;;;;5073174;28;20933;-79
2023/03/10 07:16:52;;;;;;;0.30;0.23;;;8.20;99.90;;;;;;5073455;28;20453;-80
2023/03/10 07:19:19;;;;;;;0.30;0.20;;;8.20;99.90;;;;;;5073076;28;20457;-79
2023/03/10 07:21:47;;;;;;;1.47;0.70;;;8.10;99.90;;;;;;5073349;28;20495;-79
2023/03/10 07:24:15;;;;;;;0.40;0.30;;;8.20;99.90;;;;;;5073538;28;20434;-79
2023/03/10 07:26:42;;;;;;;0.30;0.30;;;8.30;99.90;;;;;;5073615;28;20442;-80
2023/03/10 07:29:08;;;;;;;0.60;0.30;;;8.30;99.90;;;;;;5073293;28;20847;-79
2023/03/10 07:31:36;;;;;;;0.30;0.20;;;8.40;99.90;;;;;;5073241;28;20456;-79
2023/03/10 07:34:03;;;;;;;2.20;0.60;;;8.30;99.90;;;;;;5073269;28;20450;-79
2023/03/10 07:36:29;;;;;;;0.30;0.30;;;8.40;99.90;;;;;;5073217;28;20449;-79
2023/03/10 07:38:57;;;;;;;0.30;0.20;;;8.30;99.90;;;;;;5073180;28;20462;-79
2023/03/10 07:41:24;;;;;;;0.40;0.30;;;8.40;99.90;;;;;;5072911;28;20441;-79
2023/03/10 07:43:53;;;;;;;0.40;0.30;;;8.50;99.90;;;;;;5073207;28;20454;-79
2023/03/10 07:46:20;;;;;;;0.30;0.20;;;8.50;99.90;;;;;;5072958;28;20484;-79
2023/03/10 07:48:47;;;;;;;0.30;0.20;;;8.60;99.90;;;;;;5072981;28;20489;-79
2023/03/10 07:51:14;;;;;;;0.30;0.30;;;8.60;99.90;;;;;;5073170;28;20433;-79
2023/03/10 07:53:41;;;;;;;0.30;0.20;;;8.70;99.90;;;;;;5073067;28;20445;-79
2023/03/10 07:56:11;;;;;;;0.30;0.20;;;8.70;99.90;;;;;;5073065;28;20458;-79
2023/03/10 07:58:38;;;;;;;0.30;0.20;;;8.70;99.90;;;;;;5073013;28;20465;-78
2023/03/10 08:01:06;;;;;;;0.30;0.30;;;8.60;99.90;;;;;;5073002;28;20454;-78
2023/03/10 08:03:34;;;;;;;0.40;0.40;;;8.50;99.90;;;;;;5072987;28;20843;-79
2023/03/10 08:06:01;;;;;;;0.30;0.20;;;8.30;99.90;;;;;;5076956;28;20444;-79
2023/03/10 08:08:28;;;;;;;0.30;0.30;;;8.20;99.90;;;;;;5076710;28;20469;-79
2023/03/10 08:11:02;;;;;;;0.30;0.27;;;8.00;99.90;;;;;;5076516;28;20944;-78
2023/03/10 08:13:31;;;;;;;0.30;0.20;;;7.80;99.90;;;;;;5076788;28;20452;-78
2023/03/10 08:15:59;;;;;;;0.40;0.30;;;7.70;99.90;;;;;;5076723;28;20456;-78
2023/03/10 08:18:26;;;;;;;0.30;0.20;;;7.70;99.90;;;;;;5076603;28;20508;-78
2023/03/10 08:20:52;;;;;;;0.30;0.20;;;7.70;99.90;;;;;;5076641;28;20445;-78
2023/03/10 08:23:19;;;;;;;0.30;0.20;;;7.70;99.90;;;;;;5076265;28;20941;-78
2023/03/10 08:25:46;;;;;;;0.30;0.30;;;7.70;99.90;;;;;;5076537;28;20445;-78
2023/03/10 08:28:13;;;;;;;0.30;0.20;;;7.70;99.90;;;;;;5076439;28;20477;-78
2023/03/10 08:30:41;;;;;;;0.30;0.20;;;7.80;99.90;;;;;;5076358;28;20477;-78
2023/03/10 08:33:08;;;;;;;0.30;0.20;;;7.80;99.90;;;;;;5076977;28;20784;-81
2023/03/10 08:35:36;;;;;;;0.30;0.30;;;7.90;99.90;;;;;;5076379;28;20445;-78
2023/03/10 08:38:03;;;;;;;0.30;0.30;;;7.90;99.90;;;;;;5075920;28;21003;-78
2023/03/10 08:40:30;;;;;;;0.30;0.20;;;7.90;99.90;;;;;;5076307;28;20445;-78
2023/03/10 08:42:57;;;;;;;0.30;0.20;;;8.20;99.90;;;;;;5076192;28;20496;-78
2023/03/10 08:45:24;;;;;;;0.30;0.20;;;8.50;99.90;;;;;;5075780;28;20847;-78
2023/03/10 08:47:52;;;;;;;0.60;0.33;;;8.70;99.90;;;;;;5075839;28;20469;-78
2023/03/10 08:50:22;;;;;;;1.23;0.30;;;8.90;99.90;;;;;;5076413;28;20465;-78
2023/03/10 08:52:49;;;;;;;1.43;0.30;;;9.20;99.90;;;;;;5076638;28;20878;-78
2023/03/10 08:55:16;;;;;;;0.30;0.30;;;9.60;99.90;;;;;;5075730;28;20446;-78
2023/03/10 08:57:42;;;;;;;0.30;0.20;;;9.80;99.90;;;;;;5075886;28;20469;-78
2023/03/10 09:00:12;;;;;;;0.30;0.30;;;10.00;99.90;;;;;;5075959;28;20448;-78
2023/03/10 09:02:39;;;;;;;0.70;0.50;;;10.10;99.90;;;;;;5075849;28;20441;-78
2023/03/10 09:05:09;;;;;;;1.57;0.63;;;10.20;99.90;;;;;;5075855;28;20499;-78
2023/03/10 09:07:36;;;;;;;0.30;0.27;;;10.50;99.90;;;;;;5076007;28;20545;-78
2023/03/10 09:10:04;;;;;;;0.77;0.40;;;10.80;99.90;;;;;;5075621;28;20494;-79
2023/03/10 09:12:30;;;;;;;0.30;0.20;;;11.20;99.90;;;;;;5075718;28;20489;-79
2023/03/10 09:14:57;;;;;;;0.30;0.20;;;11.30;99.90;;;;;;5076089;28;20453;-80
2023/03/10 09:17:24;;;;;;;0.40;0.30;;;11.20;99.90;;;;;;5075826;28;20446;-79
2023/03/10 09:19:50;;;;;;;0.30;0.20;;;10.90;99.90;;;;;;5075570;28;20464;-79
2023/03/10 09:22:18;;;;;;;0.30;0.30;;;10.90;99.90;;;;;;5075521;28;20452;-79
2023/03/10 09:24:45;;;;;;;0.30;0.30;;;10.70;99.90;;;;;;5075472;28;20441;-79
2023/03/10 09:27:12;;;;;;;0.30;0.20;;;11.00;99.90;;;;;;5075358;28;20476;-79
2023/03/10 09:29:38;;;;;;;0.30;0.20;;;11.60;99.90;;;;;;5075354;28;20477;-79
2023/03/10 09:32:06;;;;;;;0.30;0.20;;;11.70;99.90;;;;;;5075037;28;20453;-79
2023/03/10 09:34:33;;;;;;;0.30;0.20;;;11.50;99.90;;;;;;5075291;28;20810;-79
2023/03/10 09:36:59;;;;;;;0.40;0.30;;;11.30;99.90;;;;;;5075205;28;20463;-79
2023/03/10 09:39:28;;;;;;;0.30;0.30;;;10.90;99.90;;;;;;5075143;28;20465;-79
2023/03/10 09:42:14;;;;;;;0.33;0.27;;;10.70;99.90;;;;;;5075112;28;20503;-79
2023/03/10 09:44:48;;;;;;;0.90;0.30;;;10.40;99.90;;;;;;5074862;28;20429;-78
2023/03/10 09:47:28;;;;;;;0.30;0.30;;;10.20;99.90;;;;;;5074946;28;20445;-78
2023/03/10 09:50:12;;;;;;;0.40;0.30;;;10.10;99.90;;;;;;5074632;28;21082;-78
2023/03/10 09:52:44;;;;;;;1.33;0.30;;;9.90;99.90;;;;;;5074883;28;20437;-78
2023/03/10 09:55:20;;;;;;;0.30;0.20;;;9.90;99.90;;;;;;5074624;28;20956;-78
2023/03/10 09:57:49;;;;;;;0.30;0.30;;;9.80;99.90;;;;;;5074459;28;20461;-79
2023/03/10 10:00:22;;;;;;;0.60;0.40;;;9.70;99.90;;;;;;5074701;28;20445;-78
2023/03/10 10:02:56;;;;;;;0.30;0.30;;;9.70;99.90;;;;;;5074453;28;20924;-78
2023/03/10 10:05:26;;;;;;;1.87;0.43;;;9.70;99.90;;;;;;5074678;28;20432;-81
2023/03/10 10:07:57;;;;;;;0.30;0.27;;;9.70;99.90;;;;;;5074542;28;20461;-78
2023/03/10 10:10:28;;;;;;;0.30;0.30;;;9.80;99.90;;;;;;5074227;28;20993;-78
2023/03/10 10:12:58;;;;;;;0.30;0.23;;;9.80;99.90;;;;;;5074523;28;20434;-78
2023/03/10 10:15:27;;;;;;;0.30;0.20;;;9.80;99.90;;;;;;5074445;28;20472;-78
2023/03/10 10:18:06;;;;;;;0.30;0.30;;;9.80;99.90;;;;;;5074376;28;20477;-78
2023/03/10 10:20:37;;;;;;;0.30;0.30;;;10.00;99.90;;;;;;5074434;28;20507;-78
2023/03/10 10:23:12;;;;;;;0.30;0.20;;;10.10;99.90;;;;;;5074343;28;20430;-79
2023/03/10 10:25:41;;;;;;;0.30;0.20;;;10.20;99.90;;;;;;5074314;28;20429;-78
2023/03/10 10:28:19;;;;;;;0.30;0.30;;;10.20;99.90;;;;;;5073694;28;20461;-79
2023/03/10 10:30:46;;;;;;;0.30;0.20;;;10.10;99.90;;;;;;5073796;28;20980;-79
2023/03/10 10:33:15;;;;;;;0.30;0.20;;;9.90;99.90;;;;;;5074694;28;20854;-78
2023/03/10 10:35:44;;;;;;;0.30;0.30;;;9.90;99.90;;;;;;5074144;28;20455;-78
2023/03/10 10:38:24;;;;;;;2.67;0.60;;;9.90;99.90;;;;;;5074590;28;20887;-80
2023/03/10 10:41:00;;;;;;;0.57;0.27;;;9.90;99.90;;;;;;5074242;28;20422;-79
2023/03/10 10:43:26;;;;;;;0.30;0.20;;;10.00;99.90;;;;;;5074001;28;20433;-79
2023/03/10 10:45:54;;;;;;;0.30;0.30;;;10.20;99.90;;;;;;5073648;28;20486;-79
2023/03/10 10:48:37;;;;;;;0.30;0.20;;;10.30;99.90;;;;;;5073782;28;20477;-79
2023/03/10 10:51:04;;;;;;;0.30;0.20;;;10.30;99.90;;;;;;5073769;28;20534;-79
2023/03/10 10:53:33;;;;;;;0.30;0.30;;;10.40;99.90;;;;;;5073780;28;20448;-79
2023/03/10 10:56:05;;;;;;;0.93;0.30;;;10.60;99.90;;;;;;5073947;28;20488;-79
2023/03/10 10:58:34;;;;;;;0.67;0.67;;;10.70;99.90;;;;;;5073754;28;20527;-79
2023/03/10 11:01:04;;;;;;;0.30;0.30;;;10.90;99.90;;;;;;5073830;28;20441;-78
2023/03/10 11:03:33;;;;;;;0.30;0.20;;;11.20;99.90;;;;;;5073896;28;20548;-78
2023/03/10 11:06:01;;;;;;;0.30;0.30;;;11.50;99.90;;;;;;5073842;28;20454;-78
2023/03/10 11:08:33;;;;;;;0.40;0.30;;;11.50;99.90;;;;;;5073736;28;20469;-78
2023/03/10 11:11:05;;;;;;;1.70;0.40;;;11.50;99.90;;;;;;5073584;28;20515;-79
2023/03/10 11:13:38;;;;;;;0.40;0.30;;;11.50;99.90;;;;;;5073674;28;20426;-78
2023/03/10 11:16:11;;;;;;;0.50;0.30;;;11.10;99.90;;;;;;5073564;28;20495;-78
2023/03/10 11:18:47;;;;;;;0.43;0.30;;;10.90;99.90;;;;;;5073514;28;20470;-78
2023/03/10 11:21:18;;;;;;;0.30;0.20;;;10.80;99.90;;;;;;5073522;28;20434;-78
2023/03/10 11:23:54;;;;;;;0.30;0.20;;;10.60;99.90;;;;;;5073611;28;20437;-78
2023/03/10 11:26:42;;;;;;;0.30;0.30;;;10.50;99.90;;;;;;5073522;28;20430;-78
2023/03/10 11:29:21;;;;;;;0.30;0.30;;;10.50;99.90;;;;;;5073371;28;20465;-78
2023/03/10 11:31:56;;;;;;;0.30;0.20;;;10.50;99.90;;;;;;5073610;28;20465;-78
2023/03/10 11:34:29;;;;;;;0.30;0.20;;;10.40;99.90;;;;;;5073362;28;20425;-78
2023/03/10 11:37:02;;;;;;;0.40;0.30;;;10.20;99.90;;;;;;5073296;28;20483;-78
2023/03/10 11:39:42;;;;;;;0.30;0.30;;;10.20;99.90;;;;;;5075208;28;20504;-78
2023/03/10 11:42:19;;;;;;;0.30;0.30;;;10.10;99.90;;;;;;5077201;28;20802;-78
2023/03/10 11:44:54;;;;;;;0.30;0.27;;;10.20;99.90;;;;;;5077415;28;20445;-78
2023/03/10 11:47:31;;;;;;;0.30;0.20;;;10.10;99.90;;;;;;5077389;28;20452;-78
2023/03/10 11:50:05;;;;;;;0.40;0.40;;;10.20;99.90;;;;;;5077426;28;20830;-78
2023/03/10 11:52:32;;;;;;;0.30;0.30;;;10.30;99.90;;;;;;5077305;28;20433;-78
2023/03/10 11:55:04;;;;;;;0.30;0.30;;;10.30;99.90;;;;;;5076913;28;20448;-78
2023/03/10 11:57:36;;;;;;;0.30;0.20;;;10.40;99.90;;;;;;5076950;28;20803;-78
2023/03/10 12:00:10;;;;;;;0.30;0.20;;;10.70;99.90;;;;;;5077188;28;20430;-78
2023/03/10 12:02:42;;;;;;;0.70;0.27;;;11.10;99.90;;;;;;5077095;28;20493;-79
2023/03/10 12:05:17;;;;;;;0.50;0.30;;;11.20;99.90;;;;;;5077034;28;20430;-79
2023/03/10 12:07:46;;;;;;;0.40;0.30;;;11.40;99.90;;;;;;5076986;28;20472;-79
2023/03/10 12:10:16;;;;;;;0.30;0.20;;;11.60;99.90;;;;;;5076882;28;20484;-79
2023/03/10 12:12:46;;;;;;;0.30;0.27;;;11.80;99.90;;;;;;5076572;28;20455;-79
2023/03/10 12:15:19;;;;;;;0.30;0.20;;;11.80;99.90;;;;;;5076773;28;20441;-79
2023/03/10 12:17:48;;;;;;;0.30;0.30;;;11.80;99.90;;;;;;5076831;28;20466;-79
2023/03/10 12:20:26;;;;;;;0.30;0.20;;;11.60;99.90;;;;;;5076883;28;20461;-79
2023/03/10 12:22:54;;;;;;;0.60;0.30;;;11.30;99.90;;;;;;5077240;28;20806;-79
2023/03/10 12:25:44;;;;;;;0.30;0.30;;;11.20;99.90;;;;;;5077922;28;20452;-79
2023/03/10 12:28:32;;;;;;;0.30;0.20;;;11.10;99.90;;;;;;5076538;28;20468;-79
2023/03/10 12:31:00;;;;;;;0.30;0.20;;;11.00;99.90;;;;;;5076773;28;20465;-79
2023/03/10 12:34:13;;;;;;;0.30;0.20;;;11.10;99.90;;;;;;5076197;28;20979;-79
2023/03/10 12:36:43;;;;;;;0.30;0.20;;;11.20;99.90;;;;;;5076434;28;20417;-79
2023/03/10 12:39:30;;;;;;;0.30;0.20;;;11.30;99.90;;;;;;5076325;28;20538;-79
2023/03/10 12:41:58;;;;;;;0.30;0.20;;;11.40;99.90;;;;;;5076269;28;20421;-79
2023/03/10 12:44:50;;;;;;;0.30;0.20;;;11.30;99.90;;;;;;5075954;28;20456;-79
2023/03/10 12:47:35;;;;;;;0.30;0.20;;;11.20;99.90;;;;;;5076155;28;20426;-79
2023/03/10 12:50:15;;;;;;;0.30;0.20;;;11.10;99.90;;;;;;5075680;28;20425;-79
2023/03/10 12:52:51;;;;;;;0.43;0.43;;;11.00;99.90;;;;;;5076110;28;20426;-79
2023/03/10 12:55:21;;;;;;;0.30;0.20;;;10.60;99.90;;;;;;5076083;28;20430;-79
2023/03/10 12:57:58;;;;;;;0.30;0.30;;;10.50;99.90;;;;;;5075903;28;20519;-79
2023/03/10 13:00:38;;;;;;;0.30;0.20;;;10.30;99.90;;;;;;5075635;28;20461;-78
2023/03/10 13:03:17;;;;;;;0.83;0.30;;;10.10;99.90;;;;;;5076500;28;20437;-78
2023/03/10 13:06:00;;;;;;;0.30;0.20;;;9.90;99.90;;;;;;5075904;28;20430;-78